createdAt,value
2023-04-07T00:00:18.038Z,11.70
2023-04-07T00:02:51.625Z,14.10
2023-04-07T00:05:23.186Z,16.00
2023-04-07T00:07:57.606Z,12.40
2023-04-07T00:10:27.984Z,15.50
2023-04-07T00:12:57.340Z,13.50
2023-04-07T00:15:27.441Z,15.40
2023-04-07T00:17:58.335Z,15.40
2023-04-07T00:20:27.681Z,14.60
2023-04-07T00:22:57.114Z,15.40
2023-04-07T00:25:27.328Z,12.90
2023-04-07T00:27:56.426Z,13.60
2023-04-07T00:30:25.718Z,13.90
2023-04-07T00:32:54.636Z,14.70
2023-04-07T00:35:24.716Z,13.40
2023-04-07T00:37:56.842Z,14.50
2023-04-07T00:40:28.117Z,13.20
2023-04-07T00:43:00.175Z,12.90
2023-04-07T00:45:30.055Z,13.10
2023-04-07T00:48:03.086Z,13.30
2023-04-07T00:50:33.682Z,12.70
2023-04-07T00:53:04.367Z,11.80
2023-04-07T00:55:36.536Z,13.70
2023-04-07T00:58:06.001Z,14.60
2023-04-07T01:00:42.903Z,13.80
2023-04-07T01:03:21.716Z,12.50
2023-04-07T01:06:10.307Z,16.00
2023-04-07T01:08:52.178Z,11.30
2023-04-07T01:11:31.361Z,14.70
2023-04-07T01:14:05.173Z,13.60
2023-04-07T01:16:40.191Z,11.80
2023-04-07T01:19:18.349Z,13.40
2023-04-07T01:21:56.660Z,12.60
2023-04-07T01:24:49.854Z,11.50
2023-04-07T01:27:34.413Z,11.20
2023-04-07T01:30:10.169Z,12.60
2023-04-07T01:32:47.164Z,11.90
2023-04-07T01:35:20.928Z,10.70
2023-04-07T01:37:51.870Z,10.00
2023-04-07T01:40:23.077Z,11.80
2023-04-07T01:42:57.363Z,11.40
2023-04-07T01:45:37.456Z,11.60
2023-04-07T01:48:11.855Z,9.80
2023-04-07T01:50:41.318Z,13.30
2023-04-07T01:53:14.768Z,13.20
2023-04-07T01:55:45.188Z,12.30
2023-04-07T01:58:18.446Z,13.60
2023-04-07T02:00:47.668Z,14.20
2023-04-07T02:03:24.511Z,12.80
2023-04-07T02:06:01.176Z,12.60
2023-04-07T02:08:32.321Z,13.60
2023-04-07T02:11:07.721Z,15.10
2023-04-07T02:13:41.245Z,12.40
2023-04-07T02:16:11.988Z,13.70
2023-04-07T02:18:44.990Z,15.30
2023-04-07T02:21:15.971Z,12.40
2023-04-07T02:23:46.163Z,13.30
2023-04-07T02:26:15.895Z,15.40
2023-04-07T02:28:45.038Z,14.40
2023-04-07T02:31:14.522Z,13.70
2023-04-07T02:33:46.932Z,15.30
2023-04-07T02:36:21.207Z,14.40
2023-04-07T02:38:50.427Z,15.80
2023-04-07T02:41:21.335Z,15.90
2023-04-07T02:43:54.304Z,16.30
2023-04-07T02:46:30.482Z,14.50
2023-04-07T02:49:02.660Z,16.80
2023-04-07T02:51:34.108Z,14.50
2023-04-07T02:54:04.739Z,16.20
2023-04-07T02:56:36.828Z,15.80
2023-04-07T02:59:08.593Z,16.10
2023-04-07T03:01:40.828Z,17.10
2023-04-07T03:04:10.833Z,18.30
2023-04-07T03:06:41.109Z,15.00
2023-04-07T03:09:12.359Z,19.20
2023-04-07T03:11:43.382Z,18.60
2023-04-07T03:14:13.815Z,16.30
2023-04-07T03:16:45.298Z,17.70
2023-04-07T03:19:22.815Z,17.10
2023-04-07T03:21:55.464Z,16.50
2023-04-07T03:24:25.500Z,19.50
2023-04-07T03:26:56.838Z,19.40
2023-04-07T03:29:29.353Z,21.50
2023-04-07T03:32:52.976Z,19.70
2023-04-07T03:39:10.416Z,16.20
2023-04-07T03:41:40.278Z,16.20
2023-04-07T03:44:09.747Z,16.80
2023-04-07T03:46:39.298Z,17.60
2023-04-07T03:49:08.310Z,15.30
2023-04-07T03:51:37.133Z,17.00
2023-04-07T03:54:09.235Z,16.90
2023-04-07T03:56:40.711Z,16.90
2023-04-07T03:59:13.020Z,15.10
2023-04-07T04:01:45.271Z,14.80
2023-04-07T04:04:14.839Z,20.80
2023-04-07T04:06:47.571Z,18.30
2023-04-07T04:09:21.164Z,17.00
2023-04-07T04:11:53.047Z,16.60
2023-04-07T04:14:25.859Z,17.90
2023-04-07T04:16:55.923Z,17.00
2023-04-07T04:19:25.810Z,18.10
2023-04-07T04:21:54.954Z,16.80
2023-04-07T04:24:23.865Z,16.60
2023-04-07T04:26:53.068Z,16.50
2023-04-07T04:29:21.964Z,17.60
2023-04-07T04:31:53.960Z,19.20
2023-04-07T04:34:22.799Z,17.10
2023-04-07T04:36:52.289Z,16.10
2023-04-07T04:39:25.702Z,17.80
2023-04-07T04:41:56.489Z,16.90
2023-04-07T04:44:30.663Z,20.30
2023-04-07T04:47:00.384Z,18.60
2023-04-07T04:49:32.490Z,19.20
2023-04-07T04:52:01.994Z,20.30
2023-04-07T04:54:37.245Z,19.70
2023-04-07T04:57:08.524Z,21.50
2023-04-07T04:59:38.051Z,19.00
2023-04-07T05:02:15.104Z,25.10
2023-04-07T05:04:44.302Z,20.90
2023-04-07T05:07:15.625Z,20.60
2023-04-07T05:09:44.521Z,20.70
2023-04-07T05:12:22.424Z,20.70
2023-04-07T05:14:52.253Z,21.90
2023-04-07T05:17:25.591Z,20.30
2023-04-07T05:19:56.784Z,18.90
2023-04-07T05:22:25.737Z,18.30
2023-04-07T05:24:55.063Z,19.50
2023-04-07T05:27:23.765Z,18.70
2023-04-07T05:29:53.441Z,17.90
2023-04-07T05:32:22.369Z,18.60
2023-04-07T05:34:52.102Z,20.00
2023-04-07T05:37:21.287Z,19.40
2023-04-07T05:39:52.460Z,20.00
2023-04-07T05:42:23.940Z,23.70
2023-04-07T05:44:53.960Z,23.10
2023-04-07T05:47:27.047Z,20.10
2023-04-07T05:49:56.212Z,21.60
2023-04-07T05:52:25.196Z,21.30
2023-04-07T05:54:56.618Z,20.70
2023-04-07T05:57:27.767Z,20.70
2023-04-07T05:59:57.250Z,21.20
2023-04-07T06:02:28.694Z,21.70
2023-04-07T06:04:58.207Z,22.40
2023-04-07T06:07:27.500Z,19.90
2023-04-07T06:09:56.909Z,22.00
2023-04-07T06:12:28.622Z,18.50
2023-04-07T06:15:15.919Z,16.90
2023-04-07T06:18:02.219Z,17.20
2023-04-07T06:20:31.636Z,19.30
2023-04-07T06:23:16.498Z,18.10
2023-04-07T06:25:46.132Z,18.00
2023-04-07T06:31:49.117Z,15.60
2023-04-07T06:34:18.202Z,17.20
2023-04-07T06:36:47.366Z,16.00
2023-04-07T06:39:16.434Z,18.50
2023-04-07T06:41:46.566Z,15.90
2023-04-07T06:44:15.717Z,14.70
2023-04-07T06:46:47.134Z,13.90
2023-04-07T06:49:19.092Z,16.10
2023-04-07T06:51:48.483Z,14.50
2023-04-07T06:54:21.324Z,15.50
2023-04-07T06:56:50.574Z,17.80
2023-04-07T06:59:21.789Z,16.40
2023-04-07T07:01:51.469Z,14.90
2023-04-07T07:04:20.719Z,17.30
2023-04-07T07:06:50.197Z,15.30
2023-04-07T07:09:19.253Z,14.50
2023-04-07T07:11:49.768Z,15.60
2023-04-07T07:14:19.118Z,18.30
2023-04-07T07:16:48.639Z,17.60
2023-04-07T07:19:18.340Z,17.20
2023-04-07T07:21:48.521Z,18.50
2023-04-07T07:24:19.859Z,16.80
2023-04-07T07:26:49.713Z,16.20
2023-04-07T07:29:18.701Z,15.90
2023-04-07T07:31:53.339Z,16.10
2023-04-07T07:34:23.329Z,21.00
2023-04-07T07:36:53.016Z,18.70
2023-04-07T07:39:22.144Z,18.30
2023-04-07T07:41:51.244Z,18.70
2023-04-07T07:44:20.509Z,17.30
2023-04-07T07:46:51.991Z,17.80
2023-04-07T07:49:21.155Z,17.30
2023-04-07T07:51:50.703Z,20.20
2023-04-07T07:54:22.872Z,17.90
2023-04-07T07:56:54.555Z,20.50
2023-04-07T07:59:24.592Z,23.00
2023-04-07T08:01:57.319Z,17.30
2023-04-07T08:04:26.509Z,23.10
2023-04-07T08:06:55.828Z,20.90
2023-04-07T08:09:25.212Z,19.30
2023-04-07T08:11:54.285Z,20.80
2023-04-07T08:14:23.149Z,23.20
2023-04-07T08:16:52.420Z,22.80
2023-04-07T08:19:22.002Z,20.50
2023-04-07T08:21:51.429Z,20.20
2023-04-07T08:24:20.387Z,20.70
2023-04-07T08:26:49.678Z,21.10
2023-04-07T08:29:18.993Z,25.00
2023-04-07T08:31:48.022Z,24.40
2023-04-07T08:34:18.653Z,21.80
2023-04-07T08:36:48.175Z,22.60
2023-04-07T08:39:17.544Z,17.10
2023-04-07T08:41:50.940Z,18.90
2023-04-07T08:44:23.524Z,19.20
2023-04-07T08:46:55.672Z,20.60
2023-04-07T08:49:29.242Z,19.20
2023-04-07T08:52:00.475Z,23.70
2023-04-07T08:54:33.618Z,25.30
2023-04-07T08:57:04.351Z,26.70
2023-04-07T08:59:35.761Z,25.60
2023-04-07T09:02:06.905Z,21.80
2023-04-07T09:04:36.301Z,25.30
2023-04-07T09:07:07.867Z,27.80
2023-04-07T09:09:36.918Z,24.20
2023-04-07T09:12:07.237Z,25.00
2023-04-07T09:14:37.513Z,28.10
2023-04-07T09:17:06.746Z,29.50
2023-04-07T09:19:36.095Z,28.60
2023-04-07T09:22:05.064Z,27.40
2023-04-07T09:24:34.030Z,28.80
2023-04-07T09:27:16.121Z,30.50
2023-04-07T09:29:49.348Z,26.20
2023-04-07T09:32:38.417Z,28.80
2023-04-07T09:35:13.980Z,29.60
2023-04-07T09:38:03.265Z,30.80
2023-04-07T09:40:32.833Z,26.90
2023-04-07T09:43:06.277Z,28.90
2023-04-07T09:45:40.703Z,29.50
2023-04-07T09:48:23.989Z,29.80
2023-04-07T09:51:15.146Z,29.90
2023-04-07T09:53:55.433Z,31.20
2023-04-07T09:56:31.672Z,32.30
2023-04-07T09:59:09.892Z,27.20
2023-04-07T10:01:48.551Z,29.00
2023-04-07T10:04:18.016Z,31.10
2023-04-07T10:06:47.611Z,32.50
2023-04-07T10:09:21.070Z,33.90
2023-04-07T10:11:51.337Z,34.00
2023-04-07T10:14:21.863Z,25.90
2023-04-07T10:16:51.640Z,29.00
2023-04-07T10:19:21.815Z,32.80
2023-04-07T10:21:56.709Z,31.30
2023-04-07T10:24:46.926Z,32.60
2023-04-07T10:27:23.257Z,32.40
2023-04-07T10:29:53.298Z,33.30
2023-04-07T10:32:22.609Z,31.70
2023-04-07T10:35:06.237Z,31.10
2023-04-07T10:37:42.194Z,26.50
2023-04-07T10:40:36.875Z,31.60
2023-04-07T10:43:37.233Z,32.40
2023-04-07T10:46:09.246Z,32.30
2023-04-07T10:48:42.713Z,30.10
2023-04-07T10:51:37.299Z,29.60
2023-04-07T10:54:29.021Z,28.30
2023-04-07T10:57:17.779Z,28.90
2023-04-07T11:00:24.733Z,29.10
2023-04-07T11:02:58.768Z,31.40
2023-04-07T11:06:03.712Z,28.80
2023-04-07T11:09:35.627Z,30.00
2023-04-07T11:11:59.863Z,29.20
2023-04-07T11:14:30.404Z,30.80
2023-04-07T11:17:01.002Z,29.90
2023-04-07T11:19:32.244Z,29.60
2023-04-07T11:22:29.347Z,28.60
2023-04-07T11:24:59.768Z,28.70
2023-04-07T11:27:29.397Z,27.40
2023-04-07T11:29:59.866Z,28.10
2023-04-07T11:32:29.958Z,24.00
2023-04-07T11:34:59.110Z,27.70
2023-04-07T11:37:28.803Z,28.60
2023-04-07T11:39:59.540Z,27.90
2023-04-07T11:42:35.620Z,27.20
2023-04-07T11:45:08.294Z,28.90
2023-04-07T11:47:38.151Z,28.20
2023-04-07T11:50:12.189Z,27.50
2023-04-07T11:52:43.683Z,29.90
2023-04-07T11:55:24.313Z,27.40
2023-04-07T11:57:53.763Z,26.20
2023-04-07T12:00:24.070Z,29.60
2023-04-07T12:02:53.338Z,29.30
2023-04-07T12:05:24.643Z,24.90
2023-04-07T12:07:57.316Z,30.80
2023-04-07T12:10:27.069Z,31.50
2023-04-07T12:12:58.149Z,31.20
2023-04-07T12:15:28.287Z,31.20
2023-04-07T12:17:57.609Z,31.50
2023-04-07T12:20:27.263Z,31.30
2023-04-07T12:22:56.576Z,31.80
2023-04-07T12:25:27.347Z,32.90
2023-04-07T12:27:56.262Z,32.50
2023-04-07T12:30:25.495Z,34.00
2023-04-07T12:32:54.422Z,27.30
2023-04-07T12:35:24.046Z,33.20
2023-04-07T12:37:53.206Z,34.60
2023-04-07T12:40:22.477Z,30.40
2023-04-07T12:42:51.645Z,31.50
2023-04-07T12:45:25.113Z,32.60
2023-04-07T12:47:56.791Z,30.00
2023-04-07T12:50:26.362Z,30.10
2023-04-07T12:52:55.539Z,30.60
2023-04-07T12:55:25.299Z,31.00
2023-04-07T12:57:55.531Z,29.30
2023-04-07T13:00:25.234Z,28.80
2023-04-07T13:02:54.131Z,29.50
2023-04-07T13:05:23.479Z,28.30
2023-04-07T13:07:52.284Z,29.70
2023-04-07T13:10:20.935Z,28.70
2023-04-07T13:12:49.797Z,29.60
2023-04-07T13:15:18.828Z,31.00
2023-04-07T13:17:48.200Z,29.50
2023-04-07T13:20:20.618Z,32.80
2023-04-07T13:23:02.853Z,30.40
2023-04-07T13:25:34.835Z,32.00
2023-04-07T13:28:04.262Z,32.30
2023-04-07T13:30:34.294Z,28.20
2023-04-07T13:33:03.872Z,30.40
2023-04-07T13:35:35.403Z,30.10
2023-04-07T13:38:04.812Z,27.00
2023-04-07T13:40:33.704Z,26.30
2023-04-07T13:43:03.021Z,28.70
2023-04-07T13:45:32.651Z,25.80
2023-04-07T13:48:01.907Z,24.40
2023-04-07T13:50:30.737Z,16.90
2023-04-07T13:52:59.809Z,12.70
2023-04-07T13:55:29.046Z,10.90
2023-04-07T13:57:58.262Z,12.70
2023-04-07T14:00:27.920Z,12.30
2023-04-07T14:02:56.984Z,9.60
2023-04-07T14:05:26.525Z,12.50
2023-04-07T14:07:55.511Z,13.60
2023-04-07T14:10:24.231Z,9.30
2023-04-07T14:12:52.906Z,11.10
2023-04-07T14:15:21.718Z,10.10
2023-04-07T14:17:50.509Z,13.30
2023-04-07T14:20:19.379Z,10.10
2023-04-07T14:22:47.999Z,10.70
2023-04-07T14:25:16.910Z,12.80
2023-04-07T14:27:46.111Z,17.50
2023-04-07T14:30:15.142Z,17.40
2023-04-07T14:32:43.910Z,15.90
2023-04-07T14:35:13.146Z,12.20
2023-04-07T14:37:41.898Z,19.00
2023-04-07T14:40:13.818Z,15.40
2023-04-07T14:42:43.174Z,15.80
2023-04-07T14:45:13.201Z,19.60
2023-04-07T14:47:42.565Z,14.00
2023-04-07T14:50:12.827Z,10.50
2023-04-07T14:52:41.901Z,13.70
2023-04-07T14:55:11.247Z,10.80
2023-04-07T14:57:45.008Z,10.10
2023-04-07T15:00:18.780Z,10.30
2023-04-07T15:02:48.183Z,8.00
2023-04-07T15:05:18.295Z,8.20
2023-04-07T15:07:49.501Z,8.30
2023-04-07T15:10:20.348Z,7.50
2023-04-07T15:12:50.316Z,7.70
2023-04-07T15:15:19.407Z,7.60
2023-04-07T15:17:48.139Z,6.50
2023-04-07T15:20:17.742Z,2.90
2023-04-07T15:22:47.459Z,2.60
2023-04-07T15:25:25.166Z,2.70
2023-04-07T15:28:36.669Z,3.00
2023-04-07T15:32:06.419Z,3.30
2023-04-07T15:34:46.487Z,2.60
2023-04-07T15:41:05.001Z,2.90
2023-04-07T15:43:34.978Z,3.80
2023-04-07T15:46:03.938Z,3.60
2023-04-07T15:48:33.378Z,3.40
2023-04-07T15:51:02.482Z,3.50
2023-04-07T15:53:32.316Z,3.70
2023-04-07T15:56:10.582Z,5.30
2023-04-07T15:58:40.231Z,3.80
2023-04-07T16:01:09.447Z,4.40
2023-04-07T16:03:38.419Z,4.70
2023-04-07T16:06:07.672Z,4.00
2023-04-07T16:08:36.790Z,4.30
2023-04-07T16:11:05.860Z,4.80
2023-04-07T16:13:37.330Z,4.60
2023-04-07T16:16:12.407Z,4.00
2023-04-07T16:18:41.708Z,4.50
2023-04-07T16:21:10.800Z,4.20
2023-04-07T16:23:39.562Z,4.30
2023-04-07T16:26:08.490Z,5.00
2023-04-07T16:28:41.467Z,5.10
2023-04-07T16:31:12.046Z,4.60
2023-04-07T16:33:41.658Z,4.70
2023-04-07T16:36:11.030Z,4.90
2023-04-07T16:38:40.047Z,5.30
2023-04-07T16:41:12.367Z,5.20
2023-04-07T16:43:41.735Z,5.00
2023-04-07T16:46:10.986Z,4.60
2023-04-07T16:51:09.694Z,5.30
2023-04-07T16:53:43.873Z,6.40
2023-04-07T16:56:17.881Z,6.70
2023-04-07T16:58:49.356Z,8.10
2023-04-07T17:01:20.787Z,8.00
2023-04-07T17:03:53.553Z,9.20
2023-04-07T17:06:25.493Z,8.80
2023-04-07T17:08:54.525Z,7.20
2023-04-07T17:11:23.872Z,9.40
2023-04-07T17:13:56.401Z,12.70
2023-04-07T17:16:28.447Z,14.60
2023-04-07T17:19:03.922Z,13.20
2023-04-07T17:21:33.437Z,13.10
2023-04-07T17:24:03.165Z,12.50
2023-04-07T17:26:32.975Z,13.80
2023-04-07T17:29:40.279Z,17.70
2023-04-07T17:32:20.217Z,16.70
2023-04-07T17:34:49.425Z,16.80
2023-04-07T17:37:18.746Z,17.70
2023-04-07T17:39:48.519Z,18.50
2023-04-07T17:42:19.268Z,20.00
2023-04-07T17:44:50.941Z,18.00
2023-04-07T17:47:20.178Z,18.20
2023-04-07T17:49:49.867Z,16.60
2023-04-07T17:52:19.156Z,16.70
2023-04-07T17:54:48.746Z,18.70
2023-04-07T17:57:19.282Z,17.40
2023-04-07T17:59:50.020Z,17.10
2023-04-07T18:02:19.426Z,15.00
2023-04-07T18:04:49.647Z,15.10
2023-04-07T18:07:20.194Z,14.20
2023-04-07T18:09:49.437Z,13.60
2023-04-07T18:12:19.084Z,14.60
2023-04-07T18:14:48.158Z,15.60
2023-04-07T18:17:17.736Z,18.80
2023-04-07T18:19:47.190Z,17.80
2023-04-07T18:22:16.539Z,15.20
2023-04-07T18:24:45.879Z,13.50
2023-04-07T18:27:18.416Z,12.50
2023-04-07T18:29:48.314Z,11.40
2023-04-07T18:32:18.334Z,10.70
2023-04-07T18:34:50.203Z,11.10
2023-04-07T18:37:19.442Z,9.80
2023-04-07T18:39:48.773Z,10.40
2023-04-07T18:42:18.010Z,11.30
2023-04-07T18:44:47.369Z,10.70
2023-04-07T18:47:16.965Z,10.40
2023-04-07T18:49:46.368Z,11.50
2023-04-07T18:52:15.434Z,10.60
2023-04-07T18:54:46.599Z,8.90
2023-04-07T18:57:16.264Z,9.20
2023-04-07T18:59:45.764Z,8.90
2023-04-07T19:02:15.237Z,9.50
2023-04-07T19:04:44.852Z,9.90
2023-04-07T19:07:14.447Z,9.50
2023-04-07T19:09:43.635Z,10.10
2023-04-07T19:12:13.771Z,10.10
2023-04-07T19:14:42.976Z,9.00
2023-04-07T19:17:12.724Z,8.10
2023-04-07T19:19:41.781Z,8.40
2023-04-07T19:22:11.178Z,7.80
2023-04-07T19:24:41.150Z,8.80
2023-04-07T19:27:12.054Z,8.20
2023-04-07T19:29:42.424Z,9.70
2023-04-07T19:32:11.778Z,9.90
2023-04-07T19:34:40.857Z,10.50
2023-04-07T19:37:11.341Z,11.80
2023-04-07T19:39:42.834Z,10.40
2023-04-07T19:42:14.057Z,9.50
2023-04-07T19:44:44.830Z,8.80
2023-04-07T19:47:14.277Z,9.10
2023-04-07T19:49:45.726Z,8.80
2023-04-07T19:52:14.773Z,9.50
2023-04-07T19:54:43.878Z,9.10
2023-04-07T19:57:15.380Z,8.70
2023-04-07T19:59:44.232Z,8.50
2023-04-07T20:02:13.406Z,9.20
2023-04-07T20:04:44.964Z,9.20
2023-04-07T20:07:15.679Z,9.30
2023-04-07T20:09:44.771Z,8.60
2023-04-07T20:12:14.751Z,9.60
2023-04-07T20:14:44.102Z,9.40
2023-04-07T20:17:13.628Z,9.40
2023-04-07T20:19:42.704Z,11.00
2023-04-07T20:22:14.826Z,10.80
2023-04-07T20:24:45.122Z,9.70
2023-04-07T20:27:16.271Z,10.50
2023-04-07T20:29:45.310Z,10.20
2023-04-07T20:32:14.538Z,9.90
2023-04-07T20:34:46.058Z,10.80
2023-04-07T20:37:27.829Z,10.10
2023-04-07T20:40:25.347Z,10.10
2023-04-07T20:43:05.433Z,10.50
2023-04-07T20:46:02.892Z,10.90
2023-04-07T20:49:07.032Z,9.70
2023-04-07T20:52:16.440Z,10.30
2023-04-07T20:54:55.919Z,11.60
2023-04-07T20:57:47.404Z,11.90
2023-04-07T21:00:28.324Z,11.00
2023-04-07T21:03:41.657Z,10.30
2023-04-07T21:06:33.663Z,11.40
2023-04-07T21:09:05.387Z,11.50
2023-04-07T21:11:35.197Z,10.60
2023-04-07T21:14:05.039Z,11.50
2023-04-07T21:16:34.281Z,11.00
2023-04-07T21:19:03.140Z,11.30
2023-04-07T21:21:32.525Z,12.10
2023-04-07T21:24:01.814Z,11.70
2023-04-07T21:26:32.277Z,11.80
2023-04-07T21:29:03.569Z,11.70
2023-04-07T21:32:12.992Z,11.70
2023-04-07T21:35:32.408Z,11.00
2023-04-07T21:38:01.522Z,12.50
2023-04-07T21:40:30.622Z,11.90
2023-04-07T21:42:59.593Z,11.90
2023-04-07T21:45:29.725Z,11.40
2023-04-07T21:48:01.107Z,11.50
2023-04-07T21:50:30.787Z,12.50
2023-04-07T21:52:59.781Z,12.30
2023-04-07T21:55:29.185Z,11.60
2023-04-07T21:57:58.283Z,11.40
2023-04-07T22:00:27.447Z,11.70
2023-04-07T22:02:57.256Z,12.80
2023-04-07T22:05:26.508Z,11.90
2023-04-07T22:07:55.568Z,12.00
2023-04-07T22:10:24.714Z,12.10
2023-04-07T22:12:53.592Z,12.20
2023-04-07T22:15:22.781Z,12.10
2023-04-07T22:17:51.987Z,13.40
2023-04-07T22:20:20.773Z,12.90
2023-04-07T22:22:49.669Z,12.80
2023-04-07T22:25:20.158Z,12.40
2023-04-07T22:27:50.243Z,13.10
2023-04-07T22:30:19.230Z,12.80
2023-04-07T22:32:48.663Z,13.30
2023-04-07T22:35:17.971Z,12.80
2023-04-07T22:37:48.073Z,14.00
2023-04-07T22:40:16.981Z,13.70
2023-04-07T22:42:45.939Z,13.20
2023-04-07T22:45:15.126Z,13.40
2023-04-07T22:47:44.317Z,14.50
2023-04-07T22:50:13.970Z,12.90
2023-04-07T22:52:44.095Z,12.90
2023-04-07T22:55:12.993Z,13.40
2023-04-07T22:57:42.132Z,13.90
2023-04-07T23:00:12.432Z,13.40
2023-04-07T23:02:42.505Z,13.90
2023-04-07T23:05:11.731Z,15.00
2023-04-07T23:07:40.877Z,13.80
2023-04-07T23:10:11.090Z,13.80
2023-04-07T23:12:39.853Z,13.20
2023-04-07T23:15:10.646Z,14.40
2023-04-07T23:17:40.200Z,13.50
2023-04-07T23:20:12.017Z,13.40
2023-04-07T23:22:41.336Z,13.10
2023-04-07T23:25:11.451Z,13.10
2023-04-07T23:27:40.465Z,12.90
2023-04-07T23:30:12.475Z,12.80
2023-04-07T23:32:42.132Z,13.00
2023-04-07T23:35:13.214Z,12.80
2023-04-07T23:37:42.710Z,12.90
2023-04-07T23:40:13.390Z,13.70
2023-04-07T23:42:42.333Z,13.50
2023-04-07T23:45:12.509Z,13.80
2023-04-07T23:47:41.963Z,14.40
2023-04-07T23:50:13.749Z,14.40
2023-04-07T23:52:43.809Z,13.80
2023-04-07T23:55:13.131Z,13.90
2023-04-07T23:57:41.948Z,14.40
